createdAt,value
2023-03-26T00:01:49.985Z,10.35
2023-03-26T00:06:50.665Z,6.72
2023-03-26T00:09:19.995Z,13.80
2023-03-26T00:11:48.918Z,9.82
2023-03-26T00:14:18.010Z,10.00
2023-03-26T00:16:47.462Z,8.52
2023-03-26T00:19:17.120Z,10.00
2023-03-26T00:21:48.544Z,10.35
2023-03-26T00:24:17.578Z,5.72
2023-03-26T00:26:53.342Z,8.63
2023-03-26T00:29:23.072Z,14.52
2023-03-26T00:31:52.257Z,8.02
2023-03-26T00:34:23.099Z,9.93
2023-03-26T00:36:54.884Z,12.68
2023-03-26T00:39:24.596Z,10.95
2023-03-26T00:41:54.694Z,10.82
2023-03-26T00:44:23.974Z,9.25
2023-03-26T00:46:52.961Z,10.77
2023-03-26T00:49:21.990Z,8.60
2023-03-26T00:51:51.330Z,10.32
2023-03-26T00:54:24.625Z,15.10
2023-03-26T00:56:59.828Z,10.85
2023-03-26T00:59:30.470Z,12.95
2023-03-26T01:02:00.262Z,16.17
2023-03-26T01:04:34.776Z,15.05
2023-03-26T01:07:11.191Z,15.07
2023-03-26T01:09:50.192Z,18.40
2023-03-26T01:12:22.237Z,13.98
2023-03-26T01:14:52.938Z,13.23
2023-03-26T01:17:22.138Z,12.95
2023-03-26T01:19:55.453Z,13.73
2023-03-26T01:22:26.910Z,12.90
2023-03-26T01:24:59.440Z,15.27
2023-03-26T01:27:36.264Z,13.25
2023-03-26T01:30:14.986Z,11.65
2023-03-26T01:32:57.852Z,11.57
2023-03-26T01:35:41.332Z,11.23
2023-03-26T01:38:23.085Z,7.57
2023-03-26T01:41:00.110Z,18.10
2023-03-26T01:43:33.737Z,14.60
2023-03-26T01:46:06.663Z,13.40
2023-03-26T01:48:38.062Z,9.93
2023-03-26T01:51:07.976Z,14.38
2023-03-26T01:53:41.568Z,12.93
2023-03-26T01:56:17.888Z,8.70
2023-03-26T01:59:00.039Z,10.93
2023-03-26T02:01:32.571Z,9.98
2023-03-26T02:04:08.038Z,12.20
2023-03-26T02:06:42.668Z,10.73
2023-03-26T02:09:15.967Z,9.80
2023-03-26T02:11:47.989Z,13.50
2023-03-26T02:14:17.469Z,13.30
2023-03-26T02:16:47.991Z,13.15
2023-03-26T02:19:21.748Z,11.98
2023-03-26T02:21:52.132Z,14.57
2023-03-26T02:24:22.344Z,13.68
2023-03-26T02:26:58.114Z,11.80
2023-03-26T02:29:29.738Z,10.90
2023-03-26T02:31:59.015Z,13.60
2023-03-26T02:34:28.107Z,13.00
2023-03-26T02:36:57.261Z,10.52
2023-03-26T02:39:27.804Z,12.27
2023-03-26T02:42:01.701Z,10.52
2023-03-26T02:44:32.047Z,7.90
2023-03-26T02:47:00.978Z,12.48
2023-03-26T02:49:48.596Z,13.95
2023-03-26T02:52:29.685Z,9.27
2023-03-26T02:55:00.963Z,7.95
2023-03-26T02:57:32.672Z,20.02
2023-03-26T03:00:17.899Z,8.80
2023-03-26T03:02:48.246Z,8.88
2023-03-26T03:05:34.044Z,9.52
2023-03-26T03:08:28.543Z,12.45
2023-03-26T03:11:24.888Z,12.90
2023-03-26T03:13:56.344Z,11.10
2023-03-26T03:16:28.666Z,11.70
2023-03-26T03:19:00.340Z,12.95
2023-03-26T03:21:38.090Z,9.57
2023-03-26T03:24:11.757Z,11.65
2023-03-26T03:26:47.879Z,7.95
2023-03-26T03:29:35.167Z,7.57
2023-03-26T03:32:24.471Z,9.60
2023-03-26T03:34:57.373Z,12.48
2023-03-26T03:37:27.074Z,9.40
2023-03-26T03:39:57.678Z,12.40
2023-03-26T03:42:28.860Z,12.90
2023-03-26T03:45:03.246Z,11.07
2023-03-26T03:47:57.990Z,9.27
2023-03-26T03:50:36.092Z,12.05
2023-03-26T03:53:31.685Z,8.70
2023-03-26T03:56:02.986Z,12.95
2023-03-26T03:58:55.319Z,11.27
2023-03-26T04:01:33.697Z,15.13
2023-03-26T04:04:09.141Z,10.90
2023-03-26T04:07:08.012Z,8.98
2023-03-26T04:09:56.284Z,10.07
2023-03-26T04:12:27.793Z,13.32
2023-03-26T04:15:03.477Z,10.43
2023-03-26T04:17:42.417Z,8.10
2023-03-26T04:20:15.652Z,8.73
2023-03-26T04:22:47.238Z,9.07
2023-03-26T04:25:18.890Z,7.00
2023-03-26T04:28:08.848Z,12.63
2023-03-26T04:30:53.993Z,7.43
2023-03-26T04:33:40.551Z,11.52
2023-03-26T04:36:11.783Z,11.75
2023-03-26T04:38:44.606Z,9.80
2023-03-26T04:41:15.506Z,7.25
2023-03-26T04:43:58.246Z,10.77
2023-03-26T04:46:45.373Z,7.13
2023-03-26T04:49:31.978Z,7.13
2023-03-26T04:52:01.699Z,9.13
2023-03-26T04:54:49.634Z,11.38
2023-03-26T04:57:25.036Z,9.75
2023-03-26T05:00:15.251Z,10.00
2023-03-26T05:02:50.560Z,9.45
2023-03-26T05:05:22.430Z,9.57
2023-03-26T05:07:52.681Z,8.52
2023-03-26T05:10:23.589Z,7.32
2023-03-26T05:12:57.226Z,13.90
2023-03-26T05:15:29.937Z,10.57
2023-03-26T05:17:58.848Z,18.30
2023-03-26T05:20:43.500Z,8.07
2023-03-26T05:23:13.164Z,9.43
2023-03-26T05:25:49.970Z,4.45
2023-03-26T05:28:24.692Z,3.75
2023-03-26T05:31:01.304Z,10.30
2023-03-26T05:33:35.437Z,9.95
2023-03-26T05:36:15.499Z,9.52
2023-03-26T05:38:49.917Z,4.40
2023-03-26T05:41:38.326Z,6.57
2023-03-26T05:44:07.571Z,2.72
2023-03-26T05:46:36.945Z,4.13
2023-03-26T05:49:06.003Z,7.15
2023-03-26T05:51:38.732Z,3.25
2023-03-26T05:54:33.592Z,6.97
2023-03-26T05:57:35.586Z,3.53
2023-03-26T06:00:27.627Z,4.80
2023-03-26T06:02:57.406Z,10.38
2023-03-26T06:06:01.568Z,4.20
2023-03-26T06:08:46.875Z,5.20
2023-03-26T06:13:45.471Z,6.72
2023-03-26T06:16:27.302Z,5.00
2023-03-26T06:19:19.384Z,8.38
2023-03-26T06:22:11.746Z,4.57
2023-03-26T06:25:01.880Z,6.38
2023-03-26T06:27:57.482Z,5.93
2023-03-26T06:30:45.291Z,6.72
2023-03-26T06:33:32.321Z,6.60
2023-03-26T06:36:02.155Z,4.60
2023-03-26T06:38:31.254Z,5.63
2023-03-26T06:41:06.273Z,6.53
2023-03-26T06:43:51.468Z,4.28
2023-03-26T06:46:43.347Z,8.40
2023-03-26T06:49:30.855Z,7.43
2023-03-26T06:52:18.306Z,4.97
2023-03-26T06:55:02.371Z,8.90
2023-03-26T06:58:00.923Z,3.38
2023-03-26T07:01:01.811Z,3.70
2023-03-26T07:03:48.799Z,2.13
2023-03-26T07:06:36.497Z,3.95
2023-03-26T07:09:40.826Z,2.53
2023-03-26T07:23:02.478Z,2.13
2023-03-26T07:25:38.773Z,7.35
2023-03-26T07:28:15.066Z,7.40
2023-03-26T07:31:27.450Z,3.25
2023-03-26T07:34:27.692Z,6.22
2023-03-26T07:37:22.447Z,3.40
2023-03-26T07:40:19.207Z,3.22
2023-03-26T07:43:30.031Z,3.95
2023-03-26T07:45:59.355Z,2.17
2023-03-26T07:48:57.684Z,2.53
2023-03-26T07:51:57.633Z,4.35
2023-03-26T07:54:45.526Z,3.65
2023-03-26T07:57:40.632Z,1.77
2023-03-26T08:00:34.741Z,1.08
2023-03-26T08:03:25.744Z,2.67
2023-03-26T08:06:22.371Z,0.90
2023-03-26T08:09:06.782Z,3.92
2023-03-26T08:12:02.330Z,3.42
2023-03-26T08:14:50.875Z,2.58
2023-03-26T08:17:31.300Z,2.45
2023-03-26T08:20:12.052Z,2.47
2023-03-26T08:22:43.321Z,3.80
2023-03-26T08:25:35.176Z,3.33
2023-03-26T08:28:17.423Z,2.83
2023-03-26T08:30:47.065Z,1.92
2023-03-26T08:33:19.515Z,2.88
2023-03-26T08:35:48.953Z,2.28
2023-03-26T08:38:20.470Z,5.32
2023-03-26T08:41:28.895Z,6.50
2023-03-26T08:44:28.312Z,4.78
2023-03-26T08:47:25.053Z,1.90
2023-03-26T08:50:25.519Z,2.25
2023-03-26T08:53:28.129Z,3.40
2023-03-26T08:56:13.366Z,2.83
2023-03-26T08:59:34.187Z,2.85
2023-03-26T09:05:47.539Z,2.55
2023-03-26T09:30:26.590Z,3.90
2023-03-26T09:33:33.984Z,3.67
2023-03-26T09:36:43.128Z,3.35
2023-03-26T09:39:20.940Z,2.92
2023-03-26T09:42:03.793Z,3.33
2023-03-26T09:45:27.194Z,2.00
2023-03-26T09:48:29.293Z,2.70
2023-03-26T09:51:25.108Z,2.97
2023-03-26T09:54:44.296Z,3.13
2023-03-26T09:57:27.644Z,2.92
2023-03-26T10:00:14.844Z,5.60
2023-03-26T10:03:00.296Z,4.60
2023-03-26T10:05:50.566Z,2.78
2023-03-26T10:08:41.318Z,2.67
2023-03-26T10:11:18.943Z,4.10
2023-03-26T10:14:03.827Z,1.95
2023-03-26T10:16:43.455Z,4.95
2023-03-26T10:19:31.505Z,2.22
2023-03-26T10:22:09.613Z,2.55
2023-03-26T10:24:56.108Z,4.32
2023-03-26T10:27:38.572Z,3.83
2023-03-26T10:30:32.772Z,5.22
2023-03-26T10:33:26.885Z,4.40
2023-03-26T10:36:18.778Z,4.35
2023-03-26T10:39:02.686Z,3.75
2023-03-26T10:41:40.417Z,2.35
2023-03-26T10:44:34.856Z,2.22
2023-03-26T10:47:20.904Z,3.70
2023-03-26T10:50:11.155Z,4.20
2023-03-26T10:52:47.305Z,1.58
2023-03-26T10:55:20.331Z,2.95
2023-03-26T10:57:53.832Z,3.97
2023-03-26T11:00:26.292Z,2.47
2023-03-26T11:03:18.963Z,5.28
2023-03-26T11:05:56.625Z,2.58
2023-03-26T11:08:36.601Z,4.82
2023-03-26T11:11:13.911Z,5.55
2023-03-26T11:13:53.062Z,3.05
2023-03-26T11:16:30.692Z,4.25
2023-03-26T11:19:05.765Z,5.82
2023-03-26T11:21:40.458Z,5.03
2023-03-26T11:24:33.710Z,5.22
2023-03-26T11:27:15.200Z,2.97
2023-03-26T11:29:55.083Z,2.67
2023-03-26T11:32:26.791Z,2.58
2023-03-26T11:35:05.706Z,2.35
2023-03-26T11:37:39.922Z,3.08
2023-03-26T11:40:15.654Z,3.67
2023-03-26T11:42:46.070Z,5.03
2023-03-26T11:45:20.113Z,2.97
2023-03-26T11:47:53.012Z,4.32
2023-03-26T11:50:26.275Z,4.25
2023-03-26T11:52:58.411Z,2.67
2023-03-26T11:55:28.948Z,2.53
2023-03-26T11:58:00.560Z,2.75
2023-03-26T12:00:30.739Z,2.33
2023-03-26T12:03:01.520Z,2.30
2023-03-26T12:05:49.840Z,2.25
2023-03-26T12:08:28.223Z,5.30
2023-03-26T12:11:07.204Z,4.35
2023-03-26T12:16:15.102Z,6.38
2023-03-26T12:18:45.465Z,2.50
2023-03-26T12:21:16.999Z,2.45
2023-03-26T12:23:56.434Z,4.00
2023-03-26T12:26:38.168Z,3.95
2023-03-26T12:29:11.022Z,3.13
2023-03-26T12:31:50.937Z,2.78
2023-03-26T12:34:22.177Z,4.10
2023-03-26T12:36:54.799Z,2.63
2023-03-26T12:40:07.134Z,2.60
2023-03-26T12:44:44.731Z,2.88
2023-03-26T12:45:24.204Z,3.17
2023-03-26T12:48:01.247Z,5.95
2023-03-26T12:53:22.877Z,4.30
2023-03-26T12:56:01.577Z,4.38
2023-03-26T12:58:57.324Z,2.60
2023-03-26T13:01:34.429Z,2.85
2023-03-26T13:04:21.270Z,5.22
2023-03-26T13:07:01.547Z,5.47
2023-03-26T13:09:49.342Z,5.18
2023-03-26T13:12:35.570Z,5.35
2023-03-26T13:15:19.057Z,4.10
2023-03-26T13:18:08.908Z,4.22
2023-03-26T13:20:51.509Z,5.47
2023-03-26T13:23:37.495Z,3.83
2023-03-26T13:26:16.968Z,2.50
2023-03-26T13:28:53.280Z,2.33
2023-03-26T13:31:29.117Z,0.60
2023-03-26T13:34:05.343Z,1.25
2023-03-26T13:36:41.942Z,3.03
2023-03-26T13:39:21.101Z,1.15
2023-03-26T13:42:09.382Z,2.72
2023-03-26T13:44:48.791Z,1.13
2023-03-26T13:47:21.614Z,2.90
2023-03-26T13:49:55.906Z,1.70
2023-03-26T13:52:28.320Z,1.00
2023-03-26T13:55:04.676Z,0.90
2023-03-26T13:57:37.452Z,1.38
2023-03-26T14:00:13.990Z,3.35
2023-03-26T14:02:47.841Z,1.17
2023-03-26T14:05:21.325Z,1.80
2023-03-26T14:07:54.698Z,1.30
2023-03-26T14:10:28.334Z,3.10
2023-03-26T14:13:01.191Z,2.05
2023-03-26T14:15:36.970Z,1.42
2023-03-26T14:18:24.283Z,1.52
2023-03-26T14:21:34.697Z,3.22
2023-03-26T14:24:22.362Z,3.25
2023-03-26T14:27:16.218Z,1.90
2023-03-26T14:30:09.010Z,2.72
2023-03-26T14:32:51.545Z,2.28
2023-03-26T14:35:37.878Z,2.13
2023-03-26T14:38:34.605Z,3.30
2023-03-26T14:41:24.930Z,1.70
2023-03-26T14:44:27.119Z,1.75
2023-03-26T14:47:15.105Z,2.60
2023-03-26T14:50:09.323Z,1.98
2023-03-26T14:52:48.738Z,3.60
2023-03-26T14:55:39.149Z,2.80
2023-03-26T14:58:43.073Z,3.08
2023-03-26T15:01:25.325Z,2.65
2023-03-26T15:04:22.295Z,2.78
2023-03-26T15:07:19.853Z,2.60
2023-03-26T15:10:41.038Z,3.95
2023-03-26T15:13:51.954Z,2.83
2023-03-26T15:16:53.677Z,5.40
2023-03-26T15:19:54.602Z,3.75
2023-03-26T15:23:04.824Z,4.47
2023-03-26T15:26:03.824Z,2.47
2023-03-26T15:29:17.542Z,2.22
2023-03-26T15:32:25.952Z,3.47
2023-03-26T15:35:21.081Z,3.60
2023-03-26T15:38:24.559Z,5.03
2023-03-26T15:41:20.455Z,3.97
2023-03-26T15:44:23.719Z,5.68
2023-03-26T15:47:20.137Z,4.13
2023-03-26T15:49:55.075Z,5.07
2023-03-26T15:52:30.436Z,5.50
2023-03-26T15:55:05.156Z,5.18
2023-03-26T15:57:41.199Z,7.75
2023-03-26T16:00:23.549Z,7.32
2023-03-26T16:03:10.002Z,7.20
2023-03-26T16:05:54.364Z,6.60
2023-03-26T16:08:29.359Z,7.38
2023-03-26T16:10:59.489Z,9.43
2023-03-26T16:13:41.808Z,8.80
2023-03-26T16:16:26.009Z,12.27
2023-03-26T16:19:19.425Z,9.15
2023-03-26T16:21:58.355Z,9.80
2023-03-26T16:24:32.747Z,14.27
2023-03-26T16:27:08.281Z,10.77
2023-03-26T16:30:20.225Z,8.25
2023-03-26T16:32:55.353Z,13.25
2023-03-26T16:35:46.569Z,11.18
2023-03-26T16:38:18.431Z,9.82
2023-03-26T16:41:04.032Z,12.55
2023-03-26T16:44:05.470Z,8.15
2023-03-26T16:46:50.554Z,13.40
2023-03-26T16:49:42.243Z,15.25
2023-03-26T16:52:26.581Z,13.13
2023-03-26T16:55:05.444Z,11.30
2023-03-26T16:57:42.520Z,8.75
2023-03-26T17:00:31.638Z,11.68
2023-03-26T17:03:17.718Z,7.43
2023-03-26T17:06:03.622Z,12.00
2023-03-26T17:08:42.180Z,14.43
2023-03-26T17:11:22.772Z,23.88
2023-03-26T17:14:05.134Z,13.10
2023-03-26T17:16:44.581Z,13.90
2023-03-26T17:19:28.708Z,13.10
2023-03-26T17:22:05.719Z,16.08
2023-03-26T17:24:44.053Z,16.17
2023-03-26T17:27:52.932Z,14.93
2023-03-26T17:30:47.258Z,12.02
2023-03-26T17:33:24.420Z,10.40
2023-03-26T17:36:22.099Z,15.38
2023-03-26T17:39:52.281Z,11.93
2023-03-26T17:42:27.753Z,6.10
2023-03-26T17:44:57.708Z,6.82
2023-03-26T17:47:35.945Z,8.15
2023-03-26T17:50:12.696Z,7.90
2023-03-26T17:52:56.963Z,5.65
2023-03-26T17:55:31.473Z,2.97
2023-03-26T17:58:02.488Z,3.55
2023-03-26T18:00:34.213Z,6.03
2023-03-26T18:03:07.836Z,10.00
2023-03-26T18:05:41.138Z,7.38
2023-03-26T18:08:41.942Z,13.60
2023-03-26T18:11:36.980Z,7.20
2023-03-26T18:14:37.513Z,9.07
2023-03-26T18:17:07.817Z,11.40
2023-03-26T18:19:49.214Z,8.77
2023-03-26T18:22:21.836Z,8.05
2023-03-26T18:24:53.227Z,6.43
2023-03-26T18:27:24.097Z,6.85
2023-03-26T18:30:17.745Z,8.20
2023-03-26T18:33:00.036Z,8.40
2023-03-26T18:35:41.520Z,6.90
2023-03-26T18:38:17.038Z,9.40
2023-03-26T18:40:48.759Z,6.80
2023-03-26T18:43:28.819Z,10.15
2023-03-26T18:46:05.026Z,9.07
2023-03-26T18:48:34.221Z,12.85
2023-03-26T18:51:06.141Z,9.52
2023-03-26T18:53:39.909Z,7.40
2023-03-26T18:56:32.259Z,5.53
2023-03-26T18:59:05.321Z,7.97
2023-03-26T19:01:38.423Z,7.00
2023-03-26T19:04:09.109Z,7.53
2023-03-26T19:06:42.152Z,7.20
2023-03-26T19:09:27.914Z,6.50
2023-03-26T19:12:12.516Z,8.95
2023-03-26T19:14:56.843Z,4.90
2023-03-26T19:17:29.674Z,6.90
2023-03-26T19:19:59.098Z,3.42
2023-03-26T19:22:30.445Z,6.40
2023-03-26T19:25:02.576Z,8.70
2023-03-26T19:27:33.204Z,8.10
2023-03-26T19:30:02.209Z,9.65
2023-03-26T19:32:34.608Z,2.78
2023-03-26T19:35:05.256Z,10.00
2023-03-26T19:37:34.377Z,8.57
2023-03-26T19:40:14.292Z,6.43
2023-03-26T19:42:45.098Z,6.75
2023-03-26T19:45:19.291Z,6.97
2023-03-26T19:48:00.066Z,6.20
2023-03-26T19:50:35.447Z,7.45
2023-03-26T19:53:32.689Z,6.75
2023-03-26T19:56:13.198Z,4.07
2023-03-26T19:58:44.266Z,3.40
2023-03-26T20:01:18.845Z,4.72
2023-03-26T20:03:49.988Z,6.53
2023-03-26T20:06:22.187Z,4.28
2023-03-26T20:08:57.924Z,4.80
2023-03-26T20:11:33.445Z,6.78
2023-03-26T20:14:08.513Z,8.00
2023-03-26T20:16:37.745Z,3.30
2023-03-26T20:19:06.966Z,4.70
2023-03-26T20:21:38.458Z,4.13
2023-03-26T20:24:13.375Z,6.32
2023-03-26T20:26:42.463Z,5.18
2023-03-26T20:29:12.972Z,4.63
2023-03-26T20:31:43.212Z,6.93
2023-03-26T20:34:17.887Z,5.55
2023-03-26T20:36:47.440Z,6.30
2023-03-26T20:39:16.363Z,3.65
2023-03-26T20:41:47.233Z,4.95
2023-03-26T20:44:19.034Z,5.95
2023-03-26T20:46:50.116Z,1.70
2023-03-26T20:49:22.345Z,6.32
2023-03-26T20:51:51.514Z,4.75
2023-03-26T20:54:21.940Z,5.07
2023-03-26T20:56:51.468Z,4.70
2023-03-26T20:59:27.056Z,3.65
2023-03-26T21:01:57.776Z,2.00
2023-03-26T21:04:27.966Z,4.50
2023-03-26T21:07:10.851Z,6.85
2023-03-26T21:09:44.923Z,3.78
2023-03-26T21:12:22.862Z,6.15
2023-03-26T21:14:55.777Z,5.45
2023-03-26T21:17:25.635Z,4.35
2023-03-26T21:19:55.087Z,7.65
2023-03-26T21:22:31.519Z,5.55
2023-03-26T21:25:10.477Z,7.00
2023-03-26T21:27:47.527Z,5.07
2023-03-26T21:30:18.734Z,5.93
2023-03-26T21:32:48.721Z,4.03
2023-03-26T21:35:18.588Z,6.80
2023-03-26T21:37:48.783Z,6.75
2023-03-26T21:40:19.406Z,6.30
2023-03-26T21:42:50.990Z,4.18
2023-03-26T21:45:22.936Z,2.10
2023-03-26T21:47:54.156Z,9.20
2023-03-26T21:50:24.506Z,2.53
2023-03-26T21:52:54.047Z,6.03
2023-03-26T21:55:25.113Z,5.05
2023-03-26T21:58:13.315Z,4.22
2023-03-26T22:00:56.565Z,6.10
2023-03-26T22:03:33.877Z,4.88
2023-03-26T22:06:08.420Z,7.47
2023-03-26T22:08:40.002Z,8.13
2023-03-26T22:11:09.919Z,2.97
2023-03-26T22:13:39.393Z,3.75
2023-03-26T22:16:15.487Z,5.95
2023-03-26T22:18:44.924Z,6.80
2023-03-26T22:21:14.233Z,6.00
2023-03-26T22:23:43.022Z,3.10
2023-03-26T22:26:11.783Z,5.93
2023-03-26T22:28:40.890Z,6.65
2023-03-26T22:31:12.100Z,3.72
2023-03-26T22:33:42.413Z,4.13
2023-03-26T22:36:22.352Z,5.35
2023-03-26T22:38:54.803Z,10.45
2023-03-26T22:41:24.028Z,5.60
2023-03-26T22:44:01.503Z,5.93
2023-03-26T22:46:36.829Z,4.80
2023-03-26T22:49:06.165Z,4.43
2023-03-26T22:51:35.125Z,5.57
2023-03-26T22:54:04.133Z,3.20
2023-03-26T22:56:33.080Z,7.53
2023-03-26T22:59:01.993Z,3.22
2023-03-26T23:01:30.916Z,3.75
2023-03-26T23:04:01.273Z,4.57
2023-03-26T23:06:31.596Z,3.10
2023-03-26T23:09:01.137Z,5.80
2023-03-26T23:11:31.261Z,8.02
2023-03-26T23:14:02.018Z,2.15
2023-03-26T23:16:31.796Z,5.97
2023-03-26T23:19:02.512Z,3.55
2023-03-26T23:21:31.819Z,3.47
2023-03-26T23:24:00.731Z,3.35
2023-03-26T23:26:34.984Z,8.02
2023-03-26T23:29:06.669Z,4.93
2023-03-26T23:31:38.418Z,6.95
2023-03-26T23:34:09.391Z,4.57
2023-03-26T23:36:38.382Z,4.47
2023-03-26T23:39:07.179Z,5.07
2023-03-26T23:41:36.744Z,7.70
2023-03-26T23:44:05.880Z,6.72
2023-03-26T23:46:34.890Z,5.43
2023-03-26T23:49:04.186Z,6.35
2023-03-26T23:51:36.193Z,5.63
2023-03-26T23:54:06.623Z,8.35
2023-03-26T23:56:36.032Z,5.78
2023-03-26T23:59:04.957Z,2.80
